Time;durP1;ratioP1;P1;durP2;ratioP2;P2;SDS_P1;SDS_P2;PMS_P1;PMS_P2;Temp;Humidity;BMP_temperature;BMP_pressure;BME280_temperature;BME280_humidity;BME280_pressure;Samples;Min_cycle;Max_cycle;Signal;HPM_P1;HPM_P2
2022/10/09 00:00:47;;;;;;;18.80;6.78;;;10.00;99.90;;;;;;5092539;28;20016;-67
2022/10/09 00:03:14;;;;;;;17.48;6.80;;;10.20;99.90;;;;;;5079673;28;20033;-67
2022/10/09 00:05:40;;;;;;;15.15;6.30;;;10.20;99.90;;;;;;5091718;28;20020;-67
2022/10/09 00:08:06;;;;;;;16.80;7.18;;;10.40;99.90;;;;;;5092577;28;20028;-68
2022/10/09 00:10:31;;;;;;;20.23;7.22;;;10.40;99.90;;;;;;5092227;28;20095;-67
2022/10/09 00:12:57;;;;;;;19.70;6.82;;;10.40;99.90;;;;;;5092580;28;20395;-68
2022/10/09 00:15:23;;;;;;;18.48;6.32;;;10.40;99.90;;;;;;5092437;28;20024;-68
2022/10/09 00:17:49;;;;;;;17.23;6.88;;;10.40;99.90;;;;;;5092496;28;20024;-67
2022/10/09 00:20:15;;;;;;;20.88;7.18;;;10.20;99.90;;;;;;5092528;28;20035;-67
2022/10/09 00:22:42;;;;;;;16.15;6.90;;;10.20;99.90;;;;;;5092545;28;20024;-67
2022/10/09 00:25:08;;;;;;;18.42;7.10;;;10.10;99.90;;;;;;5091864;28;20101;-67
2022/10/09 00:27:35;;;;;;;18.52;8.02;;;10.10;99.90;;;;;;5074223;28;20548;-67
2022/10/09 00:30:00;;;;;;;23.25;7.80;;;9.90;99.90;;;;;;5074151;28;20064;-67
2022/10/09 00:32:26;;;;;;;17.98;8.10;;;9.90;99.90;;;;;;5092533;28;20044;-67
2022/10/09 00:34:52;;;;;;;13.10;6.32;;;9.90;99.90;;;;;;5074442;28;20028;-67
2022/10/09 00:37:18;;;;;;;17.73;7.75;;;9.70;99.90;;;;;;5092447;28;20844;-67
2022/10/09 00:39:43;;;;;;;12.10;6.35;;;9.70;99.90;;;;;;5090289;28;20028;-68
2022/10/09 00:42:11;;;;;;;14.75;6.47;;;9.70;99.90;;;;;;5070978;28;20021;-67
2022/10/09 00:44:59;;;;;;;19.38;7.43;;;9.80;99.90;;;;;;5071557;28;20037;-67
2022/10/09 00:47:28;;;;;;;14.32;6.65;;;9.80;99.90;;;;;;5072217;28;20039;-67
2022/10/09 00:50:02;;;;;;;21.25;8.48;;;9.80;99.90;;;;;;5075726;28;20032;-67
2022/10/09 00:52:28;;;;;;;14.45;7.57;;;10.00;99.90;;;;;;5075415;28;20036;-67
2022/10/09 00:54:55;;;;;;;15.40;7.55;;;10.10;99.90;;;;;;5075680;28;20024;-67
2022/10/09 00:57:21;;;;;;;23.05;7.18;;;10.00;99.90;;;;;;5057583;28;20122;-67
2022/10/09 00:59:47;;;;;;;23.40;8.25;;;9.90;99.90;;;;;;5075607;28;20059;-67
2022/10/09 01:02:12;;;;;;;18.40;7.20;;;10.10;99.90;;;;;;5075510;28;20392;-67
2022/10/09 01:04:38;;;;;;;18.48;8.07;;;9.90;99.90;;;;;;5075511;28;20024;-66
2022/10/09 01:07:16;;;;;;;20.02;7.43;;;9.70;99.90;;;;;;5075373;28;20104;-67
2022/10/09 01:09:51;;;;;;;21.70;7.25;;;9.70;99.90;;;;;;5075294;28;20026;-67
2022/10/09 01:12:44;;;;;;;15.32;7.15;;;9.90;99.90;;;;;;5075265;28;20041;-67
2022/10/09 01:15:23;;;;;;;18.58;7.30;;;9.90;99.90;;;;;;5062085;28;20024;-67
2022/10/09 01:18:07;;;;;;;16.92;7.85;;;10.00;99.90;;;;;;5075276;28;20611;-67
2022/10/09 01:20:40;;;;;;;14.20;6.38;;;10.00;99.90;;;;;;5075919;28;20388;-67
2022/10/09 01:23:27;;;;;;;17.02;6.00;;;9.90;99.90;;;;;;5057186;28;20400;-67
2022/10/09 01:26:10;;;;;;;15.55;6.88;;;9.90;99.90;;;;;;5074917;28;20115;-67
2022/10/09 01:28:38;;;;;;;14.95;6.78;;;10.10;99.90;;;;;;5057456;28;20361;-67
2022/10/09 01:31:05;;;;;;;19.83;7.03;;;9.70;99.90;;;;;;5074881;28;20385;-66
2022/10/09 01:33:32;;;;;;;17.77;7.43;;;9.60;99.90;;;;;;5074953;28;20036;-67
2022/10/09 01:35:59;;;;;;;17.58;7.63;;;9.70;99.90;;;;;;5074564;28;20074;-67
2022/10/09 01:38:27;;;;;;;16.30;7.25;;;9.80;99.90;;;;;;5074769;28;20051;-67
2022/10/09 01:40:53;;;;;;;15.48;6.75;;;9.70;99.90;;;;;;5074836;28;20031;-67
2022/10/09 01:43:19;;;;;;;18.98;6.30;;;9.50;99.90;;;;;;5074913;28;20024;-67
2022/10/09 01:45:46;;;;;;;15.55;6.85;;;9.50;99.90;;;;;;5074987;28;20043;-67
2022/10/09 01:48:17;;;;;;;15.10;6.97;;;9.70;99.90;;;;;;5074589;28;20070;-67
2022/10/09 01:50:47;;;;;;;21.40;7.30;;;9.70;99.90;;;;;;5074181;28;20024;-67
2022/10/09 01:53:18;;;;;;;18.30;7.38;;;10.00;99.90;;;;;;5074598;28;20306;-67
2022/10/09 01:56:07;;;;;;;21.38;6.97;;;10.00;99.90;;;;;;5056448;28;20016;-67
2022/10/09 01:59:06;;;;;;;13.30;6.45;;;9.80;99.90;;;;;;5074586;28;20033;-67
2022/10/09 02:01:35;;;;;;;14.38;7.45;;;9.90;99.90;;;;;;5059189;28;20048;-67
2022/10/09 02:04:06;;;;;;;12.13;5.70;;;9.90;99.90;;;;;;5074343;28;20124;-67
2022/10/09 02:06:33;;;;;;;14.00;6.65;;;9.90;99.90;;;;;;5074127;28;20385;-66
2022/10/09 02:09:01;;;;;;;18.58;7.40;;;9.80;99.90;;;;;;5074250;28;20027;-67
2022/10/09 02:11:30;;;;;;;17.83;6.32;;;9.40;99.90;;;;;;5074372;28;20479;-69
2022/10/09 02:13:58;;;;;;;12.88;6.40;;;9.30;99.90;;;;;;5074146;28;20075;-66
2022/10/09 02:16:39;;;;;;;14.25;6.63;;;9.40;99.90;;;;;;5074065;28;20056;-67
2022/10/09 02:19:27;;;;;;;23.58;6.80;;;9.30;99.90;;;;;;5074195;28;20039;-67
2022/10/09 02:22:13;;;;;;;16.98;7.10;;;9.50;99.90;;;;;;5062929;28;20477;-67
2022/10/09 02:24:40;;;;;;;19.00;5.63;;;9.30;99.90;;;;;;5073778;28;20040;-67
2022/10/09 02:27:06;;;;;;;16.58;6.50;;;9.30;99.90;;;;;;5073910;28;20133;-67
2022/10/09 02:29:32;;;;;;;15.48;6.72;;;9.40;99.90;;;;;;5073783;28;20036;-68
2022/10/09 02:31:58;;;;;;;12.82;7.15;;;9.30;99.90;;;;;;5073674;28;20032;-67
2022/10/09 02:34:24;;;;;;;17.52;6.03;;;9.10;99.90;;;;;;5055667;28;20044;-68
2022/10/09 02:36:50;;;;;;;12.82;6.40;;;9.30;99.90;;;;;;5073802;28;20080;-68
2022/10/09 02:39:16;;;;;;;10.27;6.10;;;9.30;99.90;;;;;;5073620;28;20028;-67
2022/10/09 02:41:41;;;;;;;11.98;5.97;;;9.00;99.90;;;;;;5071622;28;20059;-67
2022/10/09 02:44:08;;;;;;;18.10;6.55;;;9.00;99.90;;;;;;5073688;28;20064;-67
2022/10/09 02:46:34;;;;;;;19.27;6.50;;;9.10;99.90;;;;;;5073486;28;20077;-67
2022/10/09 02:49:00;;;;;;;18.92;6.10;;;9.20;99.90;;;;;;5055505;28;20032;-66
2022/10/09 02:51:25;;;;;;;7.82;5.18;;;8.90;99.90;;;;;;5073301;28;20024;-67
2022/10/09 02:53:55;;;;;;;13.75;5.97;;;8.90;99.90;;;;;;5073393;28;20105;-67
2022/10/09 02:56:21;;;;;;;20.77;6.82;;;8.80;99.90;;;;;;5055398;28;20477;-68
2022/10/09 02:58:47;;;;;;;14.18;5.82;;;8.90;99.90;;;;;;5073283;28;20485;-67
2022/10/09 03:01:13;;;;;;;13.00;6.88;;;8.90;99.90;;;;;;5073316;28;20028;-67
2022/10/09 03:03:40;;;;;;;13.45;5.03;;;9.20;99.90;;;;;;5055201;28;20031;-67
2022/10/09 03:06:08;;;;;;;9.65;5.43;;;9.00;99.90;;;;;;5073151;28;20016;-67
2022/10/09 03:08:35;;;;;;;15.05;6.38;;;8.90;99.90;;;;;;5072874;28;20109;-67
2022/10/09 03:11:01;;;;;;;13.23;6.15;;;8.80;99.90;;;;;;5073054;28;20032;-69
2022/10/09 03:13:27;;;;;;;14.02;5.97;;;8.70;99.90;;;;;;5055003;28;20036;-67
2022/10/09 03:15:53;;;;;;;17.50;5.90;;;8.70;99.90;;;;;;5038381;28;20073;-67
2022/10/09 03:18:19;;;;;;;12.40;5.50;;;8.70;99.90;;;;;;5072739;28;20032;-67
2022/10/09 03:20:45;;;;;;;11.20;6.28;;;8.80;99.90;;;;;;5072806;28;20027;-67
2022/10/09 03:23:11;;;;;;;18.58;6.22;;;8.70;99.90;;;;;;5072697;28;20035;-67
2022/10/09 03:25:37;;;;;;;11.95;6.07;;;8.60;99.90;;;;;;5072830;28;20040;-69
2022/10/09 03:28:03;;;;;;;13.38;6.03;;;8.60;99.90;;;;;;5072730;28;20031;-67
2022/10/09 03:30:28;;;;;;;21.00;5.95;;;8.80;99.90;;;;;;5040902;28;20425;-68
2022/10/09 03:32:54;;;;;;;10.70;5.63;;;8.80;99.90;;;;;;5067835;28;20060;-68
2022/10/09 03:35:20;;;;;;;12.55;6.28;;;8.80;99.90;;;;;;5072744;28;20039;-68
2022/10/09 03:37:46;;;;;;;10.45;5.55;;;8.70;99.90;;;;;;5072723;28;20036;-68
2022/10/09 03:40:11;;;;;;;12.40;5.88;;;8.80;99.90;;;;;;5072606;28;20017;-67
2022/10/09 03:42:37;;;;;;;15.07;6.70;;;8.60;99.90;;;;;;5072610;28;20056;-70
2022/10/09 03:45:05;;;;;;;15.82;6.22;;;8.60;99.90;;;;;;5054750;28;20037;-68
2022/10/09 03:47:31;;;;;;;12.77;6.20;;;8.70;99.90;;;;;;5072364;28;20033;-70
2022/10/09 03:49:56;;;;;;;13.00;6.05;;;8.60;99.90;;;;;;5072662;28;20404;-69
2022/10/09 03:52:22;;;;;;;11.85;5.97;;;8.70;99.90;;;;;;5072382;28;20028;-69
2022/10/09 03:54:48;;;;;;;9.50;5.85;;;8.70;99.90;;;;;;5072744;28;20109;-68
2022/10/09 03:57:14;;;;;;;13.85;6.20;;;8.60;99.90;;;;;;5072412;28;20060;-68
2022/10/09 03:59:40;;;;;;;9.93;5.85;;;8.60;99.90;;;;;;5072479;28;20017;-67
2022/10/09 04:02:06;;;;;;;14.68;6.20;;;8.50;99.90;;;;;;5072365;28;20388;-67
2022/10/09 04:04:32;;;;;;;11.50;6.20;;;8.60;99.90;;;;;;5072446;28;20020;-68
2022/10/09 04:06:58;;;;;;;13.15;6.13;;;8.70;99.90;;;;;;5072613;28;20027;-70
2022/10/09 04:09:23;;;;;;;20.40;6.03;;;8.60;99.90;;;;;;5072267;28;20028;-69
2022/10/09 04:11:49;;;;;;;20.85;6.43;;;8.40;99.90;;;;;;5073341;28;20043;-67
2022/10/09 04:14:15;;;;;;;13.85;6.28;;;8.40;99.90;;;;;;5072271;28;20032;-68
2022/10/09 04:16:41;;;;;;;17.75;6.18;;;8.50;99.90;;;;;;5072293;28;20021;-67
2022/10/09 04:19:06;;;;;;;8.88;5.82;;;8.50;99.90;;;;;;5072076;28;20036;-67
2022/10/09 04:21:32;;;;;;;12.40;6.40;;;8.30;99.90;;;;;;5072295;28;20063;-67
2022/10/09 04:23:58;;;;;;;13.35;6.15;;;8.30;99.90;;;;;;5056942;28;20036;-68
2022/10/09 04:26:24;;;;;;;14.32;6.55;;;8.30;99.90;;;;;;5076227;28;20055;-68
2022/10/09 04:28:50;;;;;;;15.27;6.35;;;8.50;99.90;;;;;;5076239;28;20047;-68
2022/10/09 04:31:16;;;;;;;14.90;6.28;;;8.40;99.90;;;;;;5075638;28;20024;-68
2022/10/09 04:33:41;;;;;;;22.48;6.43;;;8.50;99.90;;;;;;5058153;28;20062;-67
2022/10/09 04:36:07;;;;;;;12.35;6.18;;;8.30;99.90;;;;;;5076265;28;20381;-67
2022/10/09 04:38:33;;;;;;;13.88;6.10;;;8.20;99.90;;;;;;5075974;28;20031;-67
2022/10/09 04:41:04;;;;;;;11.75;5.85;;;8.20;99.90;;;;;;5076188;28;20392;-67
2022/10/09 04:43:31;;;;;;;11.63;5.90;;;8.20;99.90;;;;;;5075603;28;20027;-67
2022/10/09 04:45:57;;;;;;;15.80;6.43;;;8.10;99.90;;;;;;5075623;28;20075;-67
2022/10/09 04:48:23;;;;;;;18.17;6.03;;;8.20;99.90;;;;;;5075652;28;20442;-67
2022/10/09 04:50:49;;;;;;;14.55;5.95;;;8.20;99.90;;;;;;5075760;28;20473;-67
2022/10/09 04:53:15;;;;;;;15.52;5.68;;;8.20;99.90;;;;;;5057880;28;20037;-68
2022/10/09 04:55:42;;;;;;;17.73;7.00;;;8.40;99.90;;;;;;5075407;28;20092;-68
2022/10/09 04:58:09;;;;;;;16.00;6.00;;;8.40;99.90;;;;;;5075723;28;20036;-67
2022/10/09 05:00:42;;;;;;;15.90;6.75;;;8.40;99.90;;;;;;5075016;28;20021;-67
2022/10/09 05:03:08;;;;;;;14.07;6.82;;;8.30;99.90;;;;;;5075822;28;20041;-68
2022/10/09 05:05:34;;;;;;;9.45;5.57;;;8.10;99.90;;;;;;5075300;28;20063;-67
2022/10/09 05:08:00;;;;;;;14.93;5.65;;;8.00;99.90;;;;;;5075710;28;20071;-67
2022/10/09 05:10:26;;;;;;;13.20;6.28;;;8.10;99.90;;;;;;5057262;28;20025;-69
2022/10/09 05:12:51;;;;;;;9.45;5.30;;;7.90;99.90;;;;;;5075451;28;20044;-68
2022/10/09 05:15:18;;;;;;;9.82;5.45;;;8.00;99.90;;;;;;5075105;28;20070;-68
2022/10/09 05:17:44;;;;;;;13.70;5.93;;;7.90;99.90;;;;;;5075434;28;20029;-67
2022/10/09 05:20:10;;;;;;;12.05;5.28;;;8.00;99.90;;;;;;5075166;28;20523;-68
2022/10/09 05:22:35;;;;;;;12.30;5.47;;;7.90;99.90;;;;;;5075038;28;20059;-69
2022/10/09 05:25:02;;;;;;;17.98;6.05;;;7.60;99.90;;;;;;5057165;28;20035;-68
2022/10/09 05:27:27;;;;;;;13.82;5.65;;;7.40;99.90;;;;;;5075312;28;20127;-70
2022/10/09 05:29:53;;;;;;;12.10;5.85;;;7.40;99.90;;;;;;5056587;28;20096;-68
2022/10/09 05:32:19;;;;;;;11.18;5.78;;;7.60;99.90;;;;;;5074897;28;20029;-69
2022/10/09 05:34:44;;;;;;;14.98;6.13;;;7.60;99.90;;;;;;5073723;28;20029;-69
2022/10/09 05:37:10;;;;;;;10.93;5.95;;;7.60;99.90;;;;;;5075064;28;20025;-70
2022/10/09 05:39:37;;;;;;;11.75;5.40;;;7.80;99.90;;;;;;5074887;28;20492;-68
2022/10/09 05:42:03;;;;;;;12.75;5.55;;;7.90;99.90;;;;;;5075057;28;20066;-68
2022/10/09 05:44:28;;;;;;;13.02;6.00;;;7.90;99.90;;;;;;5074223;28;20024;-68
2022/10/09 05:46:54;;;;;;;15.65;7.30;;;7.90;99.90;;;;;;5074273;28;20051;-68
2022/10/09 05:49:20;;;;;;;13.35;5.82;;;7.90;99.90;;;;;;5056392;28;20116;-68
2022/10/09 05:51:46;;;;;;;12.90;5.95;;;7.90;99.90;;;;;;5074574;28;20017;-69
2022/10/09 05:54:16;;;;;;;14.55;6.57;;;7.90;99.90;;;;;;5074574;28;20405;-68
2022/10/09 05:56:43;;;;;;;11.98;5.68;;;7.70;99.90;;;;;;5074264;28;20059;-67
2022/10/09 05:59:13;;;;;;;16.42;5.88;;;7.70;99.90;;;;;;5074140;28;20042;-69
2022/10/09 06:01:45;;;;;;;16.45;5.88;;;7.80;99.90;;;;;;5056608;28;20036;-68
2022/10/09 06:04:12;;;;;;;;;;;7.70;99.90;;;;;;5075279;28;20082;-69
2022/10/09 06:06:39;;;;;;;16.40;6.45;;;7.80;99.90;;;;;;5074323;28;20269;-67
2022/10/09 06:09:07;;;;;;;13.73;6.00;;;7.80;99.90;;;;;;5074082;28;20032;-70
2022/10/09 06:11:35;;;;;;;17.85;6.40;;;7.80;99.90;;;;;;5073766;28;20081;-68
2022/10/09 06:14:03;;;;;;;15.82;6.05;;;7.90;99.90;;;;;;5074289;28;20036;-68
2022/10/09 06:16:31;;;;;;;14.30;5.20;;;8.00;99.90;;;;;;5074187;28;20039;-69
2022/10/09 06:18:58;;;;;;;13.23;6.00;;;8.10;99.90;;;;;;5074256;28;20043;-68
2022/10/09 06:21:25;;;;;;;15.10;6.00;;;8.10;99.90;;;;;;5055970;28;20035;-68
2022/10/09 06:23:56;;;;;;;12.98;5.43;;;8.10;99.90;;;;;;5074193;28;20040;-68
2022/10/09 06:26:23;;;;;;;13.98;5.32;;;8.10;99.90;;;;;;5073241;28;20060;-70
2022/10/09 06:28:49;;;;;;;13.65;5.68;;;8.20;99.90;;;;;;5073910;28;20029;-67
2022/10/09 06:31:27;;;;;;;25.60;6.00;;;8.30;99.90;;;;;;5055765;28;20020;-68
2022/10/09 06:33:53;;;;;;;14.90;5.68;;;8.40;99.90;;;;;;5073770;28;20548;-67
2022/10/09 06:36:21;;;;;;;20.25;6.63;;;8.30;99.90;;;;;;5073596;28;20044;-68
2022/10/09 06:38:48;;;;;;;12.55;5.78;;;8.20;99.90;;;;;;5073656;28;20037;-68
2022/10/09 06:41:16;;;;;;;14.75;5.45;;;8.20;99.90;;;;;;5073235;28;20477;-68
2022/10/09 06:43:46;;;;;;;15.75;5.57;;;8.50;99.90;;;;;;5073707;28;20107;-67
2022/10/09 06:46:12;;;;;;;17.15;5.82;;;8.60;99.90;;;;;;5073142;28;20040;-67
2022/10/09 06:48:39;;;;;;;11.93;6.00;;;8.70;99.90;;;;;;5073404;28;20032;-70
2022/10/09 06:51:11;;;;;;;19.67;6.05;;;8.60;99.90;;;;;;5047979;28;20012;-69
2022/10/09 06:53:45;;;;;;;13.18;6.03;;;8.70;99.90;;;;;;5076462;28;20036;-69
2022/10/09 06:56:11;;;;;;;14.77;6.05;;;8.70;99.90;;;;;;5072682;28;20021;-69
2022/10/09 06:58:38;;;;;;;19.13;6.22;;;8.80;99.90;;;;;;5071719;28;20068;-69
2022/10/09 07:01:07;;;;;;;23.77;6.93;;;8.90;99.90;;;;;;5067637;28;20033;-68
2022/10/09 07:03:33;;;;;;;16.70;6.57;;;8.90;99.90;;;;;;5068022;28;20111;-68
2022/10/09 07:06:14;;;;;;;17.63;5.28;;;8.90;99.90;;;;;;5070152;28;20035;-67
2022/10/09 07:08:41;;;;;;;16.67;6.28;;;8.90;99.90;;;;;;5048495;28;20483;-68
2022/10/09 07:11:20;;;;;;;15.80;7.70;;;9.10;99.90;;;;;;5070115;28;20024;-68
2022/10/09 07:13:47;;;;;;;17.23;6.70;;;9.10;99.90;;;;;;5071167;28;20155;-68
2022/10/09 07:16:18;;;;;;;23.88;6.82;;;9.20;99.90;;;;;;5070248;28;20017;-68
2022/10/09 07:18:44;;;;;;;16.73;6.53;;;9.20;99.90;;;;;;5072298;28;20028;-68
2022/10/09 07:21:10;;;;;;;23.15;7.82;;;9.30;99.90;;;;;;5049978;28;20332;-69
2022/10/09 07:23:36;;;;;;;23.05;6.80;;;9.40;99.90;;;;;;5053595;28;20503;-68
2022/10/09 07:26:13;;;;;;;20.85;6.88;;;9.50;99.90;;;;;;5071773;28;20112;-68
2022/10/09 07:28:40;;;;;;;17.98;7.43;;;9.50;99.90;;;;;;5062626;28;20547;-68
2022/10/09 07:31:07;;;;;;;14.32;6.28;;;9.70;99.90;;;;;;5051571;28;20423;-68
2022/10/09 07:33:33;;;;;;;18.27;8.23;;;9.80;99.90;;;;;;5061986;28;20029;-72
2022/10/09 07:36:00;;;;;;;19.33;8.13;;;9.70;99.90;;;;;;5070749;28;20386;-68
2022/10/09 07:38:27;;;;;;;22.45;7.50;;;9.90;99.90;;;;;;5052461;28;20031;-68
2022/10/09 07:40:53;;;;;;;19.85;7.40;;;9.90;99.90;;;;;;5053485;28;20025;-68
2022/10/09 07:43:21;;;;;;;19.42;7.63;;;9.80;99.90;;;;;;5071094;28;20504;-68
2022/10/09 07:45:47;;;;;;;19.80;7.95;;;9.90;99.90;;;;;;5071202;28;20065;-68
2022/10/09 07:48:12;;;;;;;22.25;7.97;;;10.10;99.90;;;;;;5070993;28;20464;-70
2022/10/09 07:50:39;;;;;;;17.67;7.13;;;10.20;99.90;;;;;;5070602;28;20025;-69
2022/10/09 07:53:04;;;;;;;18.38;6.55;;;10.40;99.90;;;;;;5067050;28;20040;-69
2022/10/09 07:55:30;;;;;;;18.95;7.30;;;10.40;99.90;;;;;;5053279;28;20078;-69
2022/10/09 07:57:56;;;;;;;17.15;7.53;;;10.60;99.90;;;;;;5063475;28;20047;-68
2022/10/09 08:00:22;;;;;;;18.88;7.25;;;10.70;99.90;;;;;;5071745;28;20040;-67
2022/10/09 08:02:47;;;;;;;18.65;6.65;;;10.70;99.90;;;;;;5081234;28;20024;-68
2022/10/09 08:05:13;;;;;;;17.42;6.90;;;10.80;99.90;;;;;;5053749;28;20021;-68
2022/10/09 08:07:39;;;;;;;17.02;7.10;;;10.90;99.90;;;;;;5071344;28;20351;-68
2022/10/09 08:10:05;;;;;;;21.40;7.07;;;11.00;99.90;;;;;;5071458;28;20037;-68
2022/10/09 08:12:31;;;;;;;16.95;7.00;;;11.10;99.90;;;;;;5071249;28;20029;-68
2022/10/09 08:14:56;;;;;;;23.33;7.22;;;11.30;99.90;;;;;;5039763;28;20021;-68
2022/10/09 08:17:22;;;;;;;23.15;7.85;;;11.40;99.90;;;;;;5065544;28;20111;-68
2022/10/09 08:19:48;;;;;;;18.92;6.38;;;11.50;99.90;;;;;;5071045;28;20038;-68
2022/10/09 08:22:14;;;;;;;20.55;7.00;;;11.60;99.90;;;;;;5071341;28;20028;-68
2022/10/09 08:24:39;;;;;;;16.23;7.28;;;11.80;99.90;;;;;;5071234;28;20032;-67
2022/10/09 08:27:05;;;;;;;23.33;8.75;;;12.00;99.90;;;;;;5053108;28;20040;-68
2022/10/09 08:29:32;;;;;;;20.38;7.10;;;12.00;99.90;;;;;;5070761;28;20075;-68
2022/10/09 08:31:58;;;;;;;19.77;6.88;;;12.30;99.90;;;;;;5064664;28;20496;-67
2022/10/09 08:34:24;;;;;;;21.15;8.43;;;12.20;99.90;;;;;;5071087;28;20068;-69
2022/10/09 08:36:50;;;;;;;18.67;6.47;;;12.40;99.90;;;;;;5070668;28;20064;-71
2022/10/09 08:39:16;;;;;;;18.00;7.18;;;12.70;99.90;;;;;;5068280;28;20013;-68
2022/10/09 08:41:46;;;;;;;11.50;5.95;;;12.80;99.90;;;;;;5070558;28;20066;-69
2022/10/09 08:44:30;;;;;;;14.80;5.70;;;12.90;99.90;;;;;;5071300;28;20067;-70
2022/10/09 08:47:40;;;;;;;16.27;5.55;;;13.00;99.90;;;;;;5052510;28;20473;-68
2022/10/09 08:50:08;;;;;;;17.08;6.47;;;12.80;99.90;;;;;;5031037;28;20043;-70
2022/10/09 08:52:42;;;;;;;12.50;4.88;;;12.90;99.90;;;;;;5071496;28;20089;-71
2022/10/09 08:55:23;;;;;;;18.10;4.65;;;13.10;99.90;;;;;;5063781;28;20090;-68
2022/10/09 08:57:55;;;;;;;20.67;5.97;;;13.30;99.90;;;;;;5068362;28;20119;-68
2022/10/09 09:00:29;;;;;;;19.40;5.70;;;13.30;99.90;;;;;;5071771;28;20050;-68
2022/10/09 09:03:38;;;;;;;18.23;6.10;;;13.70;99.90;;;;;;5064440;28;20036;-71
2022/10/09 09:06:34;;;;;;;17.98;4.68;;;13.70;99.90;;;;;;5076972;28;20085;-71
2022/10/09 09:09:00;;;;;;;15.45;4.85;;;14.10;99.90;;;;;;5090430;28;20482;-70
2022/10/09 09:11:41;;;;;;;13.90;4.07;;;14.40;99.90;;;;;;5089605;28;20024;-70
2022/10/09 09:14:25;;;;;;;20.17;4.33;;;14.40;99.90;;;;;;5072296;28;20497;-68
2022/10/09 09:17:22;;;;;;;14.73;4.68;;;14.60;99.90;;;;;;5064604;28;20077;-68
2022/10/09 09:20:16;;;;;;;11.27;5.53;;;14.90;99.90;;;;;;5040916;28;20553;-70
2022/10/09 09:22:47;;;;;;;20.60;6.07;;;14.80;99.90;;;;;;5074442;28;20044;-68
2022/10/09 09:25:24;;;;;;;24.05;5.60;;;14.60;99.90;;;;;;5061392;28;20029;-67
2022/10/09 09:27:53;;;;;;;12.77;4.95;;;14.70;99.90;;;;;;5057400;28;20044;-68
2022/10/09 09:30:31;;;;;;;17.48;5.03;;;14.90;99.90;;;;;;5062994;28;20033;-69
2022/10/09 09:33:20;;;;;;;17.77;4.00;;;14.70;99.90;;;;;;5073891;28;20086;-72
2022/10/09 09:36:07;;;;;;;9.63;3.92;;;15.00;99.90;;;;;;5054802;28;20150;-69
2022/10/09 09:38:34;;;;;;;16.45;4.30;;;15.20;99.90;;;;;;5072318;28;20064;-68
2022/10/09 09:41:01;;;;;;;17.38;4.45;;;15.00;99.90;;;;;;5074386;28;20024;-72
2022/10/09 09:43:27;;;;;;;14.93;3.85;;;15.20;99.90;;;;;;5074151;28;20017;-71
2022/10/09 09:45:55;;;;;;;14.90;4.40;;;15.10;99.90;;;;;;5074355;28;20033;-68
2022/10/09 09:48:32;;;;;;;12.70;3.80;;;15.10;99.90;;;;;;5074144;28;20021;-69
2022/10/09 09:50:59;;;;;;;11.40;4.32;;;15.10;99.90;;;;;;5054248;28;20035;-67
2022/10/09 09:53:30;;;;;;;9.35;3.33;;;15.50;99.90;;;;;;5070845;28;20047;-68
2022/10/09 09:55:56;;;;;;;18.63;3.67;;;16.10;99.90;;;;;;5074176;28;20104;-68
2022/10/09 09:58:31;;;;;;;12.38;4.05;;;15.90;99.90;;;;;;5074323;28;20029;-68
2022/10/09 10:01:02;;;;;;;15.13;3.40;;;16.10;99.90;;;;;;5073740;28;20537;-67
2022/10/09 10:03:29;;;;;;;13.93;4.00;;;16.50;99.90;;;;;;5073702;28;20020;-68
2022/10/09 10:05:55;;;;;;;9.35;2.78;;;16.40;99.90;;;;;;5073716;28;20044;-71
2022/10/09 10:08:22;;;;;;;10.80;3.60;;;16.60;99.90;;;;;;5073714;28;20476;-68
2022/10/09 10:10:51;;;;;;;19.63;5.35;;;16.40;99.90;;;;;;5073634;28;20025;-68
2022/10/09 10:13:19;;;;;;;10.38;3.28;;;16.20;99.90;;;;;;5056958;28;20040;-67
2022/10/09 10:16:06;;;;;;;10.68;3.80;;;16.30;99.90;;;;;;5075722;28;20019;-70
2022/10/09 10:18:42;;;;;;;11.57;2.75;;;16.40;99.90;;;;;;5071993;28;20025;-70
2022/10/09 10:21:08;;;;;;;16.05;3.75;;;16.20;99.90;;;;;;5080332;28;20023;-69
2022/10/09 10:23:39;;;;;;;9.93;3.15;;;16.40;99.90;;;;;;5089630;28;20461;-67
2022/10/09 10:26:33;;;;;;;14.55;4.90;;;16.50;99.90;;;;;;5091430;28;20031;-71
2022/10/09 10:29:17;;;;;;;12.13;4.10;;;16.80;99.90;;;;;;5092603;28;20036;-70
2022/10/09 10:31:57;;;;;;;12.00;3.60;;;17.00;99.90;;;;;;5090503;28;20028;-70
2022/10/09 10:34:44;;;;;;;10.23;2.88;;;17.30;99.90;;;;;;5050878;28;20035;-71
2022/10/09 10:37:13;;;;;;;11.25;2.92;;;17.50;99.90;;;;;;5055678;28;20032;-72
2022/10/09 10:40:04;;;;;;;24.13;13.65;;;17.80;99.90;;;;;;5073650;28;20024;-70
2022/10/09 10:42:45;;;;;;;8.63;4.20;;;18.20;99.60;;;;;;5072740;28;20028;-70
2022/10/09 10:45:18;;;;;;;23.63;13.32;;;18.40;99.60;;;;;;5073297;28;20438;-70
2022/10/09 10:47:50;;;;;;;22.90;10.35;;;18.10;99.40;;;;;;5055180;28;20516;-72
2022/10/09 10:50:18;;;;;;;13.83;6.33;;;18.30;99.50;;;;;;5086660;28;20106;-70
2022/10/09 10:52:46;;;;;;;12.95;3.13;;;18.60;99.50;;;;;;5061967;28;20024;-71
2022/10/09 10:55:43;;;;;;;12.35;4.55;;;19.70;98.80;;;;;;5072031;28;20028;-67
2022/10/09 10:58:28;;;;;;;11.73;3.40;;;20.00;97.60;;;;;;5069979;28;20029;-71
2022/10/09 11:01:19;;;;;;;8.05;2.60;;;20.10;97.30;;;;;;5054117;28;20455;-71
2022/10/09 11:04:12;;;;;;;6.32;2.58;;;20.60;97.00;;;;;;5071888;28;20025;-69
2022/10/09 11:07:03;;;;;;;13.45;3.22;;;20.30;95.30;;;;;;5066963;28;20070;-69
2022/10/09 11:09:53;;;;;;;15.57;3.25;;;20.50;96.00;;;;;;5066200;28;20492;-71
2022/10/09 11:12:29;;;;;;;8.05;2.70;;;21.10;95.40;;;;;;5069155;28;20078;-68
2022/10/09 11:15:23;;;;;;;7.28;2.80;;;21.60;94.60;;;;;;5061756;28;20484;-69
2022/10/09 11:18:13;;;;;;;14.40;2.75;;;21.20;94.50;;;;;;5071022;28;20038;-67
2022/10/09 11:21:20;;;;;;;8.55;3.15;;;21.70;94.60;;;;;;5070275;28;20572;-71
2022/10/09 11:24:13;;;;;;;9.60;2.80;;;21.60;93.80;;;;;;5070932;28;20085;-71
2022/10/09 11:26:46;;;;;;;12.18;2.63;;;21.80;94.00;;;;;;5070544;28;20441;-68
2022/10/09 11:29:29;;;;;;;8.00;2.58;;;21.80;93.70;;;;;;5070869;28;20394;-67
2022/10/09 11:32:12;;;;;;;9.57;2.55;;;22.10;93.40;;;;;;5070626;28;20548;-67
2022/10/09 11:34:43;;;;;;;9.38;1.98;;;22.20;93.00;;;;;;5068926;28;20401;-68
2022/10/09 11:37:21;;;;;;;7.47;2.65;;;21.70;93.20;;;;;;5071436;28;20039;-68
2022/10/09 11:39:47;;;;;;;8.32;2.92;;;21.40;93.50;;;;;;5071292;28;20033;-67
2022/10/09 11:42:18;;;;;;;8.15;2.60;;;22.00;95.20;;;;;;5070958;28;20078;-71
2022/10/09 11:44:56;;;;;;;8.38;2.50;;;22.40;93.10;;;;;;5071301;28;20146;-68
2022/10/09 11:47:51;;;;;;;10.40;2.15;;;22.70;93.70;;;;;;5070153;28;20026;-67
2022/10/09 11:50:17;;;;;;;11.27;2.20;;;23.70;92.20;;;;;;5062736;28;20043;-69
2022/10/09 11:53:20;;;;;;;10.88;3.00;;;24.20;91.70;;;;;;5070236;28;20111;-71
2022/10/09 11:55:47;;;;;;;11.52;2.95;;;24.10;91.00;;;;;;5071274;28;20431;-71
2022/10/09 11:58:18;;;;;;;5.45;2.28;;;22.80;91.60;;;;;;5071711;28;20478;-72
2022/10/09 12:00:49;;;;;;;11.52;3.00;;;22.10;92.50;;;;;;5068899;28;20043;-68
2022/10/09 12:03:32;;;;;;;11.77;2.58;;;22.30;93.10;;;;;;5074810;28;20457;-68
2022/10/09 12:06:05;;;;;;;9.75;2.67;;;22.20;93.20;;;;;;5071799;28;20035;-69
2022/10/09 12:08:31;;;;;;;8.00;2.53;;;21.50;94.30;;;;;;5064119;28;20024;-68
2022/10/09 12:11:07;;;;;;;7.78;2.83;;;21.20;94.00;;;;;;5069915;28;20028;-68
2022/10/09 12:13:35;;;;;;;9.18;2.85;;;22.00;93.80;;;;;;5068410;28;20040;-68
2022/10/09 12:16:01;;;;;;;8.00;2.50;;;22.60;93.00;;;;;;5070892;28;20409;-72
2022/10/09 12:18:37;;;;;;;8.30;2.38;;;23.40;93.30;;;;;;5053020;28;20443;-72
2022/10/09 12:21:17;;;;;;;5.85;2.35;;;23.30;91.80;;;;;;5071105;28;20457;-71
2022/10/09 12:23:46;;;;;;;8.65;2.50;;;23.50;92.20;;;;;;5066430;28;20058;-66
2022/10/09 12:26:13;;;;;;;9.35;2.60;;;23.30;92.50;;;;;;5070140;28;20439;-66
2022/10/09 12:28:45;;;;;;;8.25;2.55;;;24.00;91.40;;;;;;5062250;28;20068;-67
2022/10/09 12:31:20;;;;;;;12.00;2.55;;;24.80;91.00;;;;;;5061892;28;20108;-67
2022/10/09 12:33:55;;;;;;;8.20;2.40;;;25.80;89.20;;;;;;5067891;28;20066;-67
2022/10/09 12:36:24;;;;;;;7.85;2.60;;;25.30;88.40;;;;;;5052814;28;20032;-67
2022/10/09 12:38:50;;;;;;;9.10;2.20;;;24.60;88.80;;;;;;5071962;28;20032;-66
2022/10/09 12:41:27;;;;;;;7.85;2.20;;;24.30;89.10;;;;;;5071968;28;20071;-67
2022/10/09 12:43:55;;;;;;;8.27;2.42;;;24.10;90.10;;;;;;5072506;28;20089;-67
2022/10/09 12:46:36;;;;;;;7.80;2.10;;;24.20;90.20;;;;;;5075644;28;20067;-67
2022/10/09 12:49:05;;;;;;;9.10;2.63;;;23.10;90.80;;;;;;5075571;28;20477;-67
2022/10/09 12:51:32;;;;;;;9.27;2.38;;;23.60;90.60;;;;;;5075883;28;20036;-66
2022/10/09 12:53:58;;;;;;;7.25;2.47;;;24.70;90.20;;;;;;5075142;28;20083;-66
2022/10/09 12:56:29;;;;;;;9.70;1.95;;;24.30;89.30;;;;;;5075485;28;20489;-67
2022/10/09 12:58:56;;;;;;;13.27;2.20;;;24.80;87.50;;;;;;5075324;28;20044;-67
2022/10/09 13:01:23;;;;;;;10.90;2.10;;;25.30;87.20;;;;;;5075591;28;20095;-67